Time;durP1;ratioP1;P1;durP2;ratioP2;P2;SDS_P1;SDS_P2;PMS_P1;PMS_P2;Temp;Humidity;BMP_temperature;BMP_pressure;BME280_temperature;BME280_humidity;BME280_pressure;Samples;Min_cycle;Max_cycle;Signal;HPM_P1;HPM_P2
2022/04/17 00:00:36;;;;;;;13.88;5.13;;;6.80;93.70;;;;;;4993944;28;20053;-74
2022/04/17 00:03:02;;;;;;;12.07;4.85;;;6.80;93.50;;;;;;5035833;28;20589;-74
2022/04/17 00:05:28;;;;;;;10.32;4.80;;;6.80;93.40;;;;;;4976265;28;239109;-74
2022/04/17 00:07:54;;;;;;;11.23;5.20;;;6.90;93.70;;;;;;5035531;28;20041;-74
2022/04/17 00:10:21;;;;;;;11.60;5.03;;;6.80;93.50;;;;;;4983065;28;20040;-75
2022/04/17 00:12:48;;;;;;;12.52;5.13;;;6.80;93.50;;;;;;5036253;28;20060;-74
2022/04/17 00:15:14;;;;;;;10.73;5.30;;;6.80;93.40;;;;;;4994880;28;20041;-73
2022/04/17 00:17:43;;;;;;;11.32;4.97;;;6.80;93.50;;;;;;5041877;28;20034;-74
2022/04/17 00:20:12;;;;;;;10.20;4.90;;;6.70;93.70;;;;;;4984421;28;20083;-74
2022/04/17 00:22:38;;;;;;;10.63;4.82;;;6.70;93.70;;;;;;5028522;28;20040;-73
2022/04/17 00:25:07;;;;;;;13.45;5.32;;;6.70;93.90;;;;;;4983901;28;20223;-74
2022/04/17 00:27:39;;;;;;;10.93;5.38;;;6.70;93.90;;;;;;5027500;28;20060;-73
2022/04/17 00:30:06;;;;;;;12.07;5.40;;;6.70;94.10;;;;;;5004006;28;20049;-74
2022/04/17 00:32:32;;;;;;;11.52;5.75;;;6.70;94.10;;;;;;5031635;28;20048;-74
2022/04/17 00:34:59;;;;;;;10.48;5.15;;;6.60;94.10;;;;;;4996477;28;20040;-74
2022/04/17 00:37:25;;;;;;;11.95;5.43;;;6.70;94.20;;;;;;5035720;28;20037;-73
2022/04/17 00:39:52;;;;;;;14.63;5.53;;;6.60;94.50;;;;;;4994265;28;20042;-74
2022/04/17 00:42:19;;;;;;;12.77;5.65;;;6.60;94.50;;;;;;5030908;28;20215;-74
2022/04/17 00:44:45;;;;;;;12.57;5.95;;;6.70;94.60;;;;;;5002670;28;20041;-74
2022/04/17 00:47:16;;;;;;;13.00;5.72;;;6.60;94.70;;;;;;5041769;28;20044;-74
2022/04/17 00:49:46;;;;;;;11.52;5.20;;;6.60;94.70;;;;;;5001548;28;20041;-75
2022/04/17 00:52:13;;;;;;;12.57;5.68;;;6.60;94.90;;;;;;5045345;28;20048;-75
2022/04/17 00:54:44;;;;;;;11.98;5.25;;;6.60;95.20;;;;;;4987325;28;20056;-74
2022/04/17 00:57:12;;;;;;;13.88;5.97;;;6.50;95.30;;;;;;5018828;28;20069;-74
2022/04/17 00:59:42;;;;;;;11.95;5.90;;;6.50;95.50;;;;;;5000971;28;20041;-75
2022/04/17 01:02:09;;;;;;;11.85;6.00;;;6.50;95.50;;;;;;5039186;28;20050;-75
2022/04/17 01:04:36;;;;;;;10.93;6.03;;;6.50;95.60;;;;;;4979703;28;42688;-74
2022/04/17 01:07:04;;;;;;;12.50;6.13;;;6.40;95.50;;;;;;5032224;28;20034;-74
2022/04/17 01:09:30;;;;;;;13.35;6.00;;;6.40;95.60;;;;;;4999337;28;20053;-74
2022/04/17 01:11:58;;;;;;;11.30;5.43;;;6.40;95.80;;;;;;5048082;28;20034;-74
2022/04/17 01:14:26;;;;;;;12.55;5.88;;;6.40;95.80;;;;;;4992662;28;20061;-74
2022/04/17 01:16:53;;;;;;;11.85;6.32;;;6.40;95.80;;;;;;5032764;28;20048;-74
2022/04/17 01:19:19;;;;;;;12.10;6.25;;;6.30;96.10;;;;;;4991662;28;20042;-74
2022/04/17 01:21:49;;;;;;;13.30;6.05;;;6.30;96.30;;;;;;5032130;28;20053;-74
2022/04/17 01:27:02;;;;;;;11.52;5.88;;;6.20;96.40;;;;;;5033243;28;20065;-74
2022/04/17 01:29:35;;;;;;;11.63;5.90;;;6.20;96.90;;;;;;4993295;28;20052;-74
2022/04/17 01:32:07;;;;;;;13.52;6.40;;;6.10;96.70;;;;;;5032943;28;20030;-75
2022/04/17 01:34:34;;;;;;;12.90;6.05;;;6.10;96.70;;;;;;4994087;28;20061;-74
2022/04/17 01:37:01;;;;;;;12.85;6.38;;;6.10;96.90;;;;;;5030549;28;20052;-74
2022/04/17 01:39:28;;;;;;;15.05;6.60;;;6.00;97.00;;;;;;4992307;28;20056;-73
2022/04/17 01:41:55;;;;;;;11.70;6.25;;;6.00;97.20;;;;;;5038753;28;20042;-74
2022/04/17 01:44:23;;;;;;;12.15;5.80;;;6.00;97.40;;;;;;4999484;28;20117;-74
2022/04/17 01:46:49;;;;;;;12.20;6.30;;;6.00;97.50;;;;;;5024915;28;20033;-74
2022/04/17 01:49:15;;;;;;;12.48;6.40;;;5.90;97.40;;;;;;4996471;28;20029;-74
2022/04/17 01:51:44;;;;;;;14.50;6.50;;;5.90;97.40;;;;;;5031732;28;20049;-74
2022/04/17 01:54:13;;;;;;;13.32;6.00;;;5.80;97.40;;;;;;4999356;28;20051;-73
2022/04/17 01:56:40;;;;;;;14.07;6.30;;;5.80;97.60;;;;;;5029414;28;20060;-74
2022/04/17 01:59:07;;;;;;;14.43;6.90;;;5.70;97.70;;;;;;4990142;28;20042;-74
2022/04/17 02:01:35;;;;;;;12.82;6.63;;;5.60;98.00;;;;;;5007243;28;20057;-73
2022/04/17 02:04:02;;;;;;;12.65;7.03;;;5.60;98.00;;;;;;4976305;28;192665;-74
2022/04/17 02:06:29;;;;;;;13.65;7.20;;;5.60;98.10;;;;;;5033254;28;20042;-73
2022/04/17 02:08:55;;;;;;;14.45;6.25;;;5.50;98.10;;;;;;4994290;28;20038;-75
2022/04/17 02:11:23;;;;;;;13.77;7.30;;;5.60;98.20;;;;;;5048123;28;20064;-74
2022/04/17 02:13:50;;;;;;;14.82;6.85;;;5.40;98.20;;;;;;5010402;28;20034;-75
2022/04/17 02:16:20;;;;;;;12.18;6.63;;;5.40;98.40;;;;;;5000921;28;20034;-75
2022/04/17 02:18:47;;;;;;;14.82;6.88;;;5.40;98.30;;;;;;5044697;28;20573;-75
2022/04/17 02:21:15;;;;;;;11.93;6.70;;;5.40;98.40;;;;;;5002589;28;28861;-75
2022/04/17 02:23:42;;;;;;;12.55;6.60;;;5.30;98.70;;;;;;5032832;28;20046;-74
2022/04/17 02:26:09;;;;;;;12.20;6.50;;;5.20;98.90;;;;;;4981850;28;20050;-74
2022/04/17 02:28:40;;;;;;;13.65;7.00;;;5.20;99.10;;;;;;5049020;28;20046;-75
2022/04/17 02:31:07;;;;;;;15.75;7.28;;;5.20;99.20;;;;;;4995010;28;20064;-74
2022/04/17 02:33:35;;;;;;;12.88;7.10;;;5.20;99.30;;;;;;5036638;28;20049;-75
2022/04/17 02:36:01;;;;;;;15.18;6.90;;;5.20;99.40;;;;;;4965582;28;20043;-75
2022/04/17 02:38:27;;;;;;;12.65;7.20;;;5.10;99.40;;;;;;5040574;28;20046;-75
2022/04/17 02:40:54;;;;;;;12.45;7.38;;;5.10;99.50;;;;;;4982690;28;20043;-75
2022/04/17 02:43:20;;;;;;;12.98;6.90;;;5.10;99.60;;;;;;5033767;28;20064;-75
2022/04/17 02:45:47;;;;;;;13.93;7.25;;;5.00;99.80;;;;;;5013910;28;20241;-75
2022/04/17 02:48:13;;;;;;;14.30;7.82;;;5.00;99.90;;;;;;5037204;28;20038;-75
2022/04/17 02:50:40;;;;;;;13.82;7.53;;;5.00;99.90;;;;;;4979359;28;20049;-75
2022/04/17 02:53:07;;;;;;;14.20;7.63;;;5.00;99.90;;;;;;5033445;28;20037;-75
2022/04/17 02:55:33;;;;;;;14.02;7.57;;;5.00;99.90;;;;;;4999175;28;20283;-75
2022/04/17 02:57:59;;;;;;;13.80;7.38;;;4.90;99.90;;;;;;5033901;28;20041;-75
2022/04/17 03:00:31;;;;;;;15.27;7.25;;;4.90;99.90;;;;;;4995546;28;20054;-75
2022/04/17 03:05:42;;;;;;;14.18;7.18;;;4.90;99.90;;;;;;4989917;28;25150;-75
2022/04/17 03:08:10;;;;;;;14.10;7.97;;;4.80;99.90;;;;;;5033429;28;20040;-74
2022/04/17 03:10:38;;;;;;;13.98;8.00;;;4.80;99.90;;;;;;5011292;28;20152;-74
2022/04/17 03:13:05;;;;;;;13.50;7.80;;;4.80;99.90;;;;;;5035744;28;20052;-74
2022/04/17 03:15:32;;;;;;;14.07;7.18;;;4.70;99.90;;;;;;5011576;28;20071;-75
2022/04/17 03:17:59;;;;;;;14.35;7.72;;;4.70;99.90;;;;;;5035385;28;20064;-75
2022/04/17 03:20:26;;;;;;;15.55;7.78;;;4.70;99.90;;;;;;4994883;28;20045;-75
2022/04/17 03:22:53;;;;;;;16.58;8.02;;;4.70;99.90;;;;;;5032409;28;20072;-75
2022/04/17 03:25:19;;;;;;;14.70;7.65;;;4.60;99.90;;;;;;4999418;28;20153;-75
2022/04/17 03:27:46;;;;;;;14.50;7.93;;;4.60;99.90;;;;;;5028904;28;20050;-75
2022/04/17 03:30:19;;;;;;;15.23;8.18;;;4.60;99.90;;;;;;4998106;28;20054;-75
2022/04/17 03:32:47;;;;;;;15.73;8.52;;;4.50;99.90;;;;;;5034973;28;20046;-75
2022/04/17 03:35:14;;;;;;;15.25;7.97;;;4.50;99.90;;;;;;4994642;28;20048;-75
2022/04/17 03:37:44;;;;;;;15.27;7.63;;;4.50;99.90;;;;;;5039638;28;20056;-76
2022/04/17 03:40:13;;;;;;;14.25;8.57;;;4.40;99.90;;;;;;5013292;28;20059;-75
2022/04/17 03:42:39;;;;;;;14.40;7.93;;;4.40;99.90;;;;;;5028192;28;20033;-76
2022/04/17 03:45:08;;;;;;;14.27;8.02;;;4.40;99.90;;;;;;4984654;28;20047;-76
2022/04/17 03:47:35;;;;;;;17.33;7.60;;;4.30;99.90;;;;;;5026726;28;20041;-76
2022/04/17 03:50:03;;;;;;;15.32;8.00;;;4.30;99.90;;;;;;4992036;28;20369;-75
2022/04/17 03:52:50;;;;;;;14.05;8.02;;;4.30;99.90;;;;;;5032319;28;20025;-76
2022/04/17 03:55:16;;;;;;;15.68;8.07;;;4.20;99.90;;;;;;4985371;28;20042;-76
2022/04/17 03:57:42;;;;;;;15.98;8.02;;;4.10;99.90;;;;;;5029127;28;20053;-76
2022/04/17 04:00:13;;;;;;;14.02;8.18;;;4.10;99.90;;;;;;4994357;28;20405;-76
2022/04/17 04:02:40;;;;;;;13.50;7.75;;;4.10;99.90;;;;;;5033815;28;20049;-76
2022/04/17 04:05:08;;;;;;;16.13;8.25;;;4.00;99.90;;;;;;4979307;28;236966;-76
2022/04/17 04:07:35;;;;;;;15.88;8.60;;;4.00;99.90;;;;;;5031977;28;20060;-75
2022/04/17 04:10:03;;;;;;;14.73;8.40;;;4.00;99.90;;;;;;5005737;28;20056;-75
2022/04/17 04:12:29;;;;;;;16.73;8.52;;;4.00;99.90;;;;;;5041717;28;20057;-76
2022/04/17 04:14:55;;;;;;;16.35;8.25;;;3.90;99.90;;;;;;4996908;28;20053;-76
2022/04/17 04:17:21;;;;;;;18.42;8.60;;;3.90;99.90;;;;;;5041846;28;20044;-76
2022/04/17 04:19:47;;;;;;;15.77;8.60;;;3.80;99.90;;;;;;4986867;28;20030;-75
2022/04/17 04:22:13;;;;;;;16.92;8.90;;;3.80;99.90;;;;;;5014456;28;20044;-76
2022/04/17 04:24:40;;;;;;;15.13;8.38;;;3.70;99.90;;;;;;4992343;28;20049;-76
2022/04/17 04:29:51;;;;;;;15.77;8.52;;;3.70;99.90;;;;;;4995228;28;20076;-76
2022/04/17 04:32:20;;;;;;;14.63;8.48;;;3.60;99.90;;;;;;5033198;28;20057;-75
2022/04/17 04:34:47;;;;;;;16.52;8.88;;;3.60;99.90;;;;;;4990416;28;20060;-76
2022/04/17 04:37:13;;;;;;;15.90;9.00;;;3.60;99.90;;;;;;5035255;28;20060;-75
2022/04/17 04:39:39;;;;;;;14.15;8.43;;;3.70;99.90;;;;;;5000949;28;20476;-76
2022/04/17 04:42:05;;;;;;;14.60;9.00;;;3.60;99.90;;;;;;5029744;28;20054;-77
2022/04/17 04:44:31;;;;;;;15.23;9.27;;;3.60;99.90;;;;;;4990030;28;20131;-77
2022/04/17 04:46:58;;;;;;;15.82;9.02;;;3.60;99.90;;;;;;5027907;28;20054;-77
2022/04/17 04:49:29;;;;;;;21.17;9.57;;;3.60;99.90;;;;;;4986522;28;20378;-74
2022/04/17 04:52:06;;;;;;;15.05;8.45;;;3.50;99.90;;;;;;5006448;28;20050;-76
2022/04/17 04:54:34;;;;;;;16.13;8.77;;;3.60;99.90;;;;;;4977542;28;20047;-77
2022/04/17 04:57:02;;;;;;;15.75;9.27;;;3.50;99.90;;;;;;5017858;28;20046;-76
2022/04/17 04:59:35;;;;;;;15.93;9.00;;;3.60;99.90;;;;;;4999457;28;20053;-76
2022/04/17 05:02:02;;;;;;;15.45;9.05;;;3.60;99.90;;;;;;5018853;28;20053;-76
2022/04/17 05:04:29;;;;;;;16.90;9.68;;;3.60;99.90;;;;;;4977854;28;252761;-77
2022/04/17 05:06:57;;;;;;;17.48;9.38;;;3.60;99.90;;;;;;5002741;28;20060;-77
2022/04/17 05:09:23;;;;;;;17.23;9.55;;;3.70;99.90;;;;;;4982813;28;166495;-76
2022/04/17 05:11:49;;;;;;;18.08;9.98;;;3.70;99.90;;;;;;5032706;28;20052;-77
2022/04/17 05:14:18;;;;;;;15.38;9.57;;;3.70;99.90;;;;;;4994075;28;20064;-76
2022/04/17 05:16:45;;;;;;;16.58;9.68;;;3.80;99.90;;;;;;5003719;28;21329;-75
2022/04/17 05:19:27;;;;;;;17.40;9.60;;;3.80;99.90;;;;;;4980286;28;20048;-76
2022/04/17 05:21:58;;;;;;;16.88;10.02;;;3.90;99.90;;;;;;5015704;28;20065;-76
2022/04/17 05:24:25;;;;;;;16.52;10.30;;;4.00;99.90;;;;;;4995263;28;20034;-77
2022/04/17 05:26:52;;;;;;;20.17;10.13;;;4.00;99.90;;;;;;5023144;28;20034;-77
2022/04/17 05:29:19;;;;;;;16.88;10.13;;;4.10;99.90;;;;;;4995750;28;20040;-77
2022/04/17 05:31:47;;;;;;;15.95;9.55;;;4.20;99.90;;;;;;5020070;28;20038;-76
2022/04/17 05:34:13;;;;;;;16.23;9.30;;;4.20;99.90;;;;;;4995509;28;20058;-77
2022/04/17 05:36:39;;;;;;;16.48;9.50;;;4.30;99.90;;;;;;5048508;28;20042;-74
2022/04/17 05:39:05;;;;;;;19.42;9.98;;;4.40;99.90;;;;;;4992513;28;20054;-76
2022/04/17 05:41:32;;;;;;;17.05;10.82;;;4.50;99.90;;;;;;5030931;28;20038;-77
2022/04/17 05:44:07;;;;;;;16.40;9.65;;;4.50;99.90;;;;;;4990595;28;20054;-76
2022/04/17 05:46:48;;;;;;;16.83;9.93;;;4.60;99.90;;;;;;4916501;28;20055;-76
2022/04/17 05:49:14;;;;;;;17.55;9.95;;;4.70;99.90;;;;;;4914284;28;20116;-76
2022/04/17 05:51:41;;;;;;;16.02;9.63;;;4.80;99.90;;;;;;4925704;29;20076;-76
2022/04/17 05:54:07;;;;;;;18.30;10.55;;;4.90;99.90;;;;;;4902626;28;20601;-73
2022/04/17 05:56:37;;;;;;;17.92;9.40;;;5.10;99.90;;;;;;4900206;29;20059;-73
2022/04/17 05:59:05;;;;;;;15.90;9.37;;;5.20;99.90;;;;;;4870253;28;293437;-76
2022/04/17 06:01:31;;;;;;;17.30;10.00;;;5.30;99.90;;;;;;4926174;29;20056;-75
2022/04/17 06:03:58;;;;;;;17.65;10.20;;;5.40;99.90;;;;;;4861764;28;111802;-72
2022/04/17 06:06:27;;;;;;;16.75;9.55;;;5.50;99.90;;;;;;4909352;29;20558;-74
2022/04/17 06:08:53;;;;;;;15.60;9.43;;;5.60;99.90;;;;;;4892791;28;20048;-74
2022/04/17 06:11:20;;;;;;;17.80;9.63;;;5.80;99.90;;;;;;4931705;29;20043;-76
2022/04/17 06:13:46;;;;;;;17.73;9.80;;;5.90;99.90;;;;;;4911460;28;20074;-73
2022/04/17 06:16:12;;;;;;;18.02;9.75;;;6.00;99.90;;;;;;4881574;29;20456;-74
2022/04/17 06:18:38;;;;;;;16.90;9.82;;;6.10;99.90;;;;;;4916588;29;20047;-73
2022/04/17 06:21:05;;;;;;;14.80;8.88;;;6.30;99.90;;;;;;4877306;29;20051;-74
2022/04/17 06:23:32;;;;;;;17.08;9.63;;;6.50;99.90;;;;;;4949730;28;20058;-73
2022/04/17 06:25:59;;;;;;;16.27;9.50;;;6.80;99.90;;;;;;4971765;28;20054;-74
2022/04/17 06:28:26;;;;;;;15.13;9.13;;;7.00;99.90;;;;;;5010454;28;20058;-74
2022/04/17 06:30:52;;;;;;;18.20;9.43;;;7.40;99.90;;;;;;4954927;28;20041;-72
2022/04/17 06:33:18;;;;;;;19.30;9.38;;;8.00;99.90;;;;;;5010581;28;20054;-72
2022/04/17 06:35:44;;;;;;;14.05;8.55;;;8.50;99.90;;;;;;4981145;28;20084;-73
2022/04/17 06:38:10;;;;;;;15.65;8.80;;;9.00;99.90;;;;;;5007555;28;20050;-74
2022/04/17 06:40:40;;;;;;;14.95;8.75;;;9.50;99.90;;;;;;4964350;28;20049;-72
2022/04/17 06:43:08;;;;;;;13.63;8.43;;;9.80;99.90;;;;;;4992175;28;20049;-74
2022/04/17 06:45:36;;;;;;;15.32;8.18;;;10.20;99.90;;;;;;4971362;28;20069;-75
2022/04/17 06:48:13;;;;;;;16.33;8.90;;;10.60;99.90;;;;;;5015495;28;20141;-72
2022/04/17 06:50:40;;;;;;;15.18;8.10;;;11.00;99.90;;;;;;4979387;28;20373;-73
2022/04/17 06:53:06;;;;;;;13.95;8.15;;;11.40;99.90;;;;;;5014967;28;20053;-73
2022/04/17 06:55:33;;;;;;;14.00;7.78;;;11.80;99.10;;;;;;4968221;28;20046;-73
2022/04/17 06:57:59;;;;;;;13.55;8.02;;;12.20;98.80;;;;;;5004965;28;20057;-74
2022/04/17 07:00:25;;;;;;;13.57;8.40;;;12.50;98.00;;;;;;4958137;28;20113;-72
2022/04/17 07:02:51;;;;;;;13.18;8.32;;;12.80;97.90;;;;;;5003716;28;20073;-73
2022/04/17 07:05:17;;;;;;;14.07;7.93;;;13.10;97.20;;;;;;4963148;28;151778;-73
2022/04/17 07:07:44;;;;;;;14.55;7.80;;;13.40;96.40;;;;;;5003742;28;20050;-72
2022/04/17 07:10:11;;;;;;;14.38;7.75;;;13.50;94.30;;;;;;4971699;28;20046;-74
2022/04/17 07:12:37;;;;;;;12.88;7.70;;;13.50;91.80;;;;;;5009054;28;20061;-73
2022/04/17 07:15:04;;;;;;;13.50;7.72;;;13.70;93.70;;;;;;4960977;28;20041;-73
2022/04/17 07:17:38;;;;;;;13.00;7.55;;;14.00;92.60;;;;;;5003755;28;20042;-73
2022/04/17 07:20:06;;;;;;;12.48;7.30;;;14.10;91.00;;;;;;4960151;28;20410;-73
2022/04/17 07:22:33;;;;;;;13.52;7.78;;;14.30;90.90;;;;;;5002812;28;20040;-73
2022/04/17 07:25:01;;;;;;;12.77;7.53;;;14.60;90.20;;;;;;4966769;28;20054;-73
2022/04/17 07:27:49;;;;;;;12.45;7.13;;;14.80;86.50;;;;;;5011614;28;20053;-74
2022/04/17 07:30:19;;;;;;;15.18;7.10;;;15.10;84.10;;;;;;4973731;28;28726;-73
2022/04/17 07:32:51;;;;;;;11.57;6.97;;;15.40;84.50;;;;;;5013050;28;20058;-73
2022/04/17 07:35:18;;;;;;;11.75;6.88;;;15.60;82.20;;;;;;4967281;28;20519;-73
2022/04/17 07:37:52;;;;;;;12.77;6.97;;;15.90;80.20;;;;;;5001288;28;20057;-74
2022/04/17 07:40:21;;;;;;;11.80;7.07;;;16.00;71.80;;;;;;4983095;28;20056;-74
2022/04/17 07:42:49;;;;;;;13.02;6.90;;;16.10;73.90;;;;;;5007508;28;20550;-73
2022/04/17 07:45:16;;;;;;;11.25;6.50;;;16.00;69.60;;;;;;4972515;28;20057;-73
2022/04/17 07:47:43;;;;;;;13.05;6.90;;;16.10;70.00;;;;;;5008284;28;20050;-72
2022/04/17 07:50:12;;;;;;;12.13;6.55;;;16.30;67.70;;;;;;4958783;28;20042;-73
2022/04/17 07:52:42;;;;;;;12.00;6.65;;;16.60;68.00;;;;;;5013143;28;20062;-73
2022/04/17 07:55:11;;;;;;;11.77;6.60;;;16.90;65.30;;;;;;4965015;28;20105;-73
2022/04/17 08:00:23;;;;;;;13.25;6.50;;;17.20;61.50;;;;;;4959300;28;20048;-73
2022/04/17 08:02:55;;;;;;;12.32;6.43;;;17.30;59.40;;;;;;4994572;28;20403;-74
2022/04/17 08:05:24;;;;;;;11.63;6.13;;;17.40;60.80;;;;;;4937417;28;74775;-74
2022/04/17 08:07:51;;;;;;;11.48;6.43;;;17.80;61.30;;;;;;4999391;28;20057;-74
2022/04/17 08:10:18;;;;;;;11.52;6.47;;;18.10;58.70;;;;;;4971155;28;20042;-74
2022/04/17 08:12:44;;;;;;;11.68;6.10;;;18.40;58.00;;;;;;4992887;28;20046;-74
2022/04/17 08:15:10;;;;;;;24.30;6.38;;;18.70;57.10;;;;;;4969926;28;20053;-72
2022/04/17 08:17:37;;;;;;;11.93;5.78;;;18.90;56.00;;;;;;5003891;28;20066;-73
2022/04/17 08:20:04;;;;;;;10.25;5.63;;;19.30;55.70;;;;;;4979236;28;20049;-72
2022/04/17 08:22:30;;;;;;;12.02;5.85;;;19.60;52.90;;;;;;5004520;28;20058;-73
2022/04/17 08:24:56;;;;;;;9.98;5.32;;;19.60;48.90;;;;;;4966131;28;20046;-73
2022/04/17 08:27:22;;;;;;;11.60;5.90;;;19.40;48.50;;;;;;5002438;28;20156;-73
2022/04/17 08:29:48;;;;;;;10.60;5.53;;;19.40;48.80;;;;;;4960719;28;20038;-73
2022/04/17 08:32:14;;;;;;;9.55;5.13;;;18.80;46.90;;;;;;4980437;28;20053;-74
2022/04/17 08:34:40;;;;;;;9.95;5.20;;;19.00;49.80;;;;;;4947017;28;20232;-73
2022/04/17 08:37:07;;;;;;;9.90;5.30;;;19.30;48.30;;;;;;4993515;28;20053;-74
2022/04/17 08:39:33;;;;;;;11.32;5.13;;;19.70;48.90;;;;;;4966954;28;20045;-74
2022/04/17 08:42:00;;;;;;;9.77;5.25;;;20.20;48.70;;;;;;5001617;28;20498;-74
2022/04/17 08:44:26;;;;;;;10.80;5.28;;;20.60;47.50;;;;;;4961353;28;20109;-74
2022/04/17 08:46:53;;;;;;;11.52;5.40;;;21.00;45.10;;;;;;4994935;28;20082;-72
2022/04/17 08:49:21;;;;;;;10.95;4.78;;;21.20;45.80;;;;;;4965995;28;20034;-73
2022/04/17 08:51:48;;;;;;;11.02;4.50;;;21.50;45.30;;;;;;4993044;28;20499;-73
2022/04/17 08:54:15;;;;;;;10.88;4.40;;;21.80;44.40;;;;;;4966186;28;20053;-73
2022/04/17 08:56:41;;;;;;;10.18;4.20;;;22.10;43.90;;;;;;4988296;28;20507;-73
2022/04/17 08:59:07;;;;;;;8.63;4.57;;;22.10;40.70;;;;;;4967744;28;20055;-74
2022/04/17 09:01:36;;;;;;;10.23;4.70;;;21.50;41.20;;;;;;5005466;28;20057;-74
2022/04/17 09:04:03;;;;;;;9.20;4.22;;;21.40;41.80;;;;;;4946892;28;169064;-73
2022/04/17 09:06:30;;;;;;;10.38;4.40;;;21.70;41.60;;;;;;5001762;28;20046;-74
2022/04/17 09:09:00;;;;;;;9.15;4.40;;;21.90;41.20;;;;;;4969312;28;20435;-73
2022/04/17 09:11:28;;;;;;;8.73;3.92;;;22.20;41.00;;;;;;4988482;28;20411;-73
2022/04/17 09:14:02;;;;;;;19.70;5.72;;;22.30;39.80;;;;;;4968088;28;20069;-72
2022/04/17 09:16:38;;;;;;;9.25;4.32;;;22.40;40.40;;;;;;5018255;28;20050;-73
2022/04/17 09:19:18;;;;;;;11.07;4.55;;;22.50;39.10;;;;;;4983549;28;20049;-72
2022/04/17 09:21:44;;;;;;;8.90;4.27;;;22.80;39.20;;;;;;5002684;28;20050;-73
2022/04/17 09:24:16;;;;;;;10.10;4.35;;;23.00;39.40;;;;;;4970040;28;20051;-73
2022/04/17 09:26:50;;;;;;;9.15;4.22;;;23.40;39.50;;;;;;5015588;28;20054;-73
2022/04/17 09:29:24;;;;;;;11.05;4.50;;;23.80;38.50;;;;;;4961470;28;20602;-73
2022/04/17 09:31:59;;;;;;;9.95;4.13;;;24.10;38.00;;;;;;4999565;28;20050;-73
2022/04/17 09:34:28;;;;;;;10.88;4.00;;;24.10;33.90;;;;;;4971934;28;238475;-73
2022/04/17 09:37:00;;;;;;;9.25;4.35;;;23.30;37.40;;;;;;5001892;28;20053;-73
2022/04/17 09:39:35;;;;;;;9.35;4.18;;;23.10;36.60;;;;;;4971228;28;20271;-73
2022/04/17 09:42:03;;;;;;;8.93;4.55;;;23.20;37.50;;;;;;5014751;28;20053;-72
2022/04/17 09:44:45;;;;;;;8.63;4.30;;;23.20;37.00;;;;;;4968563;28;20045;-73
2022/04/17 09:47:19;;;;;;;8.98;4.10;;;23.60;36.00;;;;;;5014772;28;20065;-72
2022/04/17 09:50:04;;;;;;;8.85;3.70;;;23.40;36.00;;;;;;4967756;28;20060;-73
2022/04/17 09:52:31;;;;;;;8.75;3.67;;;23.80;36.60;;;;;;5004360;28;20056;-72
2022/04/17 09:54:59;;;;;;;11.73;4.38;;;24.30;35.70;;;;;;4968705;28;20053;-74
2022/04/17 09:57:29;;;;;;;9.35;4.30;;;24.70;35.10;;;;;;4991491;28;20054;-74
2022/04/17 09:59:56;;;;;;;;;;;24.90;36.50;;;;;;4965009;28;20050;-74
2022/04/17 10:02:25;;;;;;;8.05;3.60;;;24.90;31.40;;;;;;5001299;28;19917;-74
2022/04/17 10:04:51;;;;;;;9.55;4.32;;;24.70;35.50;;;;;;4958849;28;196584;-74
2022/04/17 10:07:23;;;;;;;8.65;3.55;;;24.90;34.60;;;;;;5004986;28;20061;-74
2022/04/17 10:09:50;;;;;;;10.23;3.58;;;25.20;34.20;;;;;;4971982;28;20490;-73
2022/04/17 10:12:19;;;;;;;9.02;3.58;;;25.60;34.60;;;;;;4984873;28;20049;-73
2022/04/17 10:14:49;;;;;;;8.05;3.75;;;26.00;33.00;;;;;;4941428;28;21322;-73
2022/04/17 10:17:22;;;;;;;;;;;26.10;31.70;;;;;;4995418;28;20482;-73
2022/04/17 10:19:50;;;;;;;9.70;3.45;;;26.00;32.70;;;;;;4962997;28;19921;-73
2022/04/17 10:22:20;;;;;;;8.93;3.65;;;26.30;33.00;;;;;;4991332;28;20049;-73
2022/04/17 10:24:54;;;;;;;8.80;3.58;;;26.50;31.40;;;;;;4975383;28;20061;-73
2022/04/17 10:27:24;;;;;;;7.45;3.33;;;26.70;32.40;;;;;;5009927;28;20174;-73
2022/04/17 10:30:12;;;;;;;7.50;2.97;;;27.10;33.00;;;;;;4963812;28;20042;-73
2022/04/17 10:33:06;;;;;;;7.85;2.70;;;27.70;32.70;;;;;;4997437;28;20049;-74
2022/04/17 10:35:44;;;;;;;7.50;3.20;;;27.90;31.10;;;;;;4954885;28;20072;-74
2022/04/17 10:38:19;;;;;;;8.57;2.95;;;27.90;29.90;;;;;;5003304;28;20065;-74
2022/04/17 10:40:57;;;;;;;7.90;3.17;;;28.00;31.00;;;;;;4981950;28;20052;-73
2022/04/17 10:43:24;;;;;;;7.38;2.70;;;27.70;30.30;;;;;;5003948;28;20526;-73
2022/04/17 10:46:19;;;;;;;8.20;3.10;;;27.50;30.70;;;;;;4956757;28;20057;-71
2022/04/17 10:49:00;;;;;;;7.68;2.95;;;28.10;28.40;;;;;;4991819;28;20058;-73
2022/04/17 10:51:31;;;;;;;7.68;3.15;;;27.90;28.50;;;;;;4949080;28;20525;-72
2022/04/17 10:54:06;;;;;;;8.40;3.45;;;26.60;29.50;;;;;;4964465;28;20054;-72
2022/04/17 10:56:37;;;;;;;6.93;2.60;;;26.40;29.70;;;;;;5023149;28;20056;-72
2022/04/17 10:59:18;;;;;;;8.80;2.78;;;26.70;30.40;;;;;;4972322;28;20510;-72
2022/04/17 11:01:45;;;;;;;7.40;2.78;;;26.90;29.20;;;;;;5013172;28;20491;-73
2022/04/17 11:04:50;;;;;;;8.55;3.03;;;27.30;30.00;;;;;;4959453;28;21444;-72
2022/04/17 11:07:16;;;;;;;7.60;3.05;;;27.80;29.80;;;;;;4942565;28;20047;-72
2022/04/17 11:09:46;;;;;;;7.53;3.28;;;27.80;28.70;;;;;;4905879;28;20055;-73
2022/04/17 11:12:18;;;;;;;8.48;3.30;;;27.90;29.80;;;;;;4945512;28;20051;-71
2022/04/17 11:15:02;;;;;;;7.68;3.22;;;28.60;29.60;;;;;;4910179;28;20043;-72
2022/04/17 11:17:32;;;;;;;8.25;3.40;;;28.80;29.50;;;;;;4949683;28;20043;-73
2022/04/17 11:19:59;;;;;;;;;;;28.90;29.10;;;;;;4901049;28;20052;-72
2022/04/17 11:22:31;;;;;;;7.68;3.13;;;28.90;28.70;;;;;;4941985;28;19925;-72
2022/04/17 11:24:58;;;;;;;7.60;3.10;;;28.70;30.30;;;;;;4909671;28;20386;-72
2022/04/17 11:27:41;;;;;;;9.10;3.30;;;28.90;29.30;;;;;;4945364;28;20059;-73
2022/04/17 11:30:27;;;;;;;7.82;3.17;;;28.60;28.40;;;;;;4908869;28;20039;-73
2022/04/17 11:32:56;;;;;;;8.75;3.40;;;27.70;27.10;;;;;;4931206;28;20081;-72
2022/04/17 11:35:26;;;;;;;8.68;3.22;;;27.10;30.00;;;;;;4903210;28;20059;-73
2022/04/17 11:37:54;;;;;;;9.00;3.60;;;27.00;29.90;;;;;;4945737;28;20175;-73
2022/04/17 11:40:21;;;;;;;7.72;3.22;;;27.10;29.60;;;;;;4911619;28;20069;-72
2022/04/17 11:42:50;;;;;;;9.98;3.55;;;26.90;29.50;;;;;;4944841;28;20054;-73
2022/04/17 11:45:22;;;;;;;7.82;3.38;;;27.10;29.40;;;;;;4958506;28;20042;-72
2022/04/17 11:47:49;;;;;;;8.30;3.55;;;27.40;29.40;;;;;;5009032;28;20052;-72
2022/04/17 11:50:29;;;;;;;9.10;3.80;;;27.80;29.90;;;;;;4947485;28;20046;-73
2022/04/17 11:52:57;;;;;;;9.73;3.53;;;28.30;29.50;;;;;;4995967;28;20050;-73
2022/04/17 11:55:34;;;;;;;10.02;3.15;;;28.70;29.50;;;;;;4962123;28;20046;-72
2022/04/17 11:58:02;;;;;;;10.52;3.20;;;28.70;28.50;;;;;;5003835;28;20053;-72
2022/04/17 12:00:30;;;;;;;9.02;3.10;;;28.40;28.70;;;;;;4960699;28;20519;-73
2022/04/17 12:03:01;;;;;;;7.50;2.97;;;28.30;28.10;;;;;;5005434;28;20061;-72
2022/04/17 12:05:28;;;;;;;7.70;3.10;;;28.50;29.20;;;;;;4949348;28;22947;-72
2022/04/17 12:08:09;;;;;;;8.05;2.88;;;29.00;28.50;;;;;;5002594;28;20064;-72
2022/04/17 12:10:38;;;;;;;8.27;3.10;;;29.30;29.20;;;;;;4979540;28;20061;-73
2022/04/17 12:13:20;;;;;;;7.25;2.90;;;29.70;28.80;;;;;;5005481;28;20052;-73
2022/04/17 12:15:58;;;;;;;7.82;2.90;;;29.80;28.20;;;;;;4982792;28;20068;-73
2022/04/17 12:18:25;;;;;;;8.32;2.75;;;29.40;29.50;;;;;;5022318;28;20050;-73
2022/04/17 12:20:58;;;;;;;9.77;2.90;;;29.40;29.10;;;;;;4955157;28;20050;-74
2022/04/17 12:23:25;;;;;;;8.73;3.20;;;29.50;28.90;;;;;;5003476;28;20049;-73
2022/04/17 12:25:53;;;;;;;7.60;2.83;;;29.50;29.10;;;;;;4981059;28;20519;-73
2022/04/17 12:28:20;;;;;;;9.20;3.58;;;29.60;28.70;;;;;;5007005;28;20042;-74
2022/04/17 12:30:46;;;;;;;13.68;3.50;;;29.30;29.40;;;;;;4968316;28;20069;-73
2022/04/17 12:33:24;;;;;;;10.82;2.92;;;29.40;29.50;;;;;;5006334;28;20060;-72
2022/04/17 12:36:05;;;;;;;7.85;3.45;;;29.90;28.60;;;;;;4986762;28;20052;-74
2022/04/17 12:38:31;;;;;;;7.85;3.30;;;30.00;27.30;;;;;;5007437;28;20038;-74
2022/04/17 12:41:00;;;;;;;9.20;3.22;;;29.80;28.80;;;;;;4972923;28;20049;-74
2022/04/17 12:43:30;;;;;;;9.73;3.58;;;30.00;28.20;;;;;;5010180;28;20050;-72
2022/04/17 12:45:58;;;;;;;8.57;3.70;;;30.10;26.70;;;;;;4954660;28;20060;-73
2022/04/17 12:48:33;;;;;;;7.85;3.47;;;29.70;27.30;;;;;;5002320;28;20049;-72
2022/04/17 12:51:05;;;;;;;8.55;3.65;;;29.80;27.30;;;;;;4962630;28;20042;-73
2022/04/17 12:53:36;;;;;;;7.90;3.47;;;29.70;26.70;;;;;;5004184;28;20057;-74
2022/04/17 12:56:03;;;;;;;7.40;3.50;;;29.30;28.00;;;;;;4969607;28;20067;-73
2022/04/17 12:58:44;;;;;;;9.02;3.70;;;29.50;28.00;;;;;;5005302;28;20062;-72
2022/04/17 13:01:21;;;;;;;8.35;3.55;;;29.70;27.70;;;;;;4962233;28;20057;-72
2022/04/17 13:03:47;;;;;;;7.68;3.70;;;30.00;28.00;;;;;;4993437;28;20062;-72
2022/04/17 13:06:23;;;;;;;9.13;3.58;;;29.80;26.90;;;;;;4955499;28;232707;-73